Pickrell, Nebraska
Current Conditions -  °F | °C
As of 7:15 AM on Thursday 27 Nov 2014 (Local Time) from KBIE Reporting Station
Overcast Overcast  
Wind Chill: 16°   Ceiling: 7000
Heat Index: 16°   Visibility: 10mi
Dew Point: 11°   Wind: 0mph
Humidity: 82%   Direction: NA
Pressure: 30.5"   Gusts: NA
Location:  40.38°N, 96.73°W
Report Text: KBIE 271315Z AUTO 00000KT 10SM OVC070 M09/M11 A3050 RMK AO2 T10901115
Loading
Personal Weather Stations






























Interactive Weather Map New forecast layout! Learn more

10-Day Weather Forecast

Advertisements
Track Severe Weather on mobile